sensor_id;sensor_type;location;lat;lon;timestamp;temperature;humidity
24260;DHT22;12384;48.112;18.418;2023-12-04T00:01:51;-3.20;61.10
24260;DHT22;12384;48.112;18.418;2023-12-04T00:04:20;-3.10;61.20
24260;DHT22;12384;48.112;18.418;2023-12-04T00:06:48;-3.10;61.30
24260;DHT22;12384;48.112;18.418;2023-12-04T00:09:17;-3.00;61.40
24260;DHT22;12384;48.112;18.418;2023-12-04T00:11:46;-3.00;62.10
24260;DHT22;12384;48.112;18.418;2023-12-04T00:14:15;-2.90;62.20
24260;DHT22;12384;48.112;18.418;2023-12-04T00:16:44;-2.90;62.10
24260;DHT22;12384;48.112;18.418;2023-12-04T00:19:13;-2.80;62.10
24260;DHT22;12384;48.112;18.418;2023-12-04T00:21:41;-2.80;62.10
24260;DHT22;12384;48.112;18.418;2023-12-04T00:24:10;-2.70;62.20
24260;DHT22;12384;48.112;18.418;2023-12-04T00:26:38;-2.70;62.10
24260;DHT22;12384;48.112;18.418;2023-12-04T00:29:08;-2.70;62.10
24260;DHT22;12384;48.112;18.418;2023-12-04T00:31:36;-2.60;62.10
24260;DHT22;12384;48.112;18.418;2023-12-04T00:34:06;-2.60;62.10
24260;DHT22;12384;48.112;18.418;2023-12-04T00:36:34;-2.50;62.10
24260;DHT22;12384;48.112;18.418;2023-12-04T00:39:03;-2.50;62.00
24260;DHT22;12384;48.112;18.418;2023-12-04T00:41:32;-2.50;62.20
24260;DHT22;12384;48.112;18.418;2023-12-04T00:44:03;-2.50;62.20
24260;DHT22;12384;48.112;18.418;2023-12-04T00:46:31;-2.50;62.20
24260;DHT22;12384;48.112;18.418;2023-12-04T00:49:00;-2.40;62.30
24260;DHT22;12384;48.112;18.418;2023-12-04T00:51:37;-2.40;62.40
24260;DHT22;12384;48.112;18.418;2023-12-04T00:54:06;-2.50;62.20
24260;DHT22;12384;48.112;18.418;2023-12-04T00:56:34;-2.40;62.20
24260;DHT22;12384;48.112;18.418;2023-12-04T00:59:02;-2.50;62.10
24260;DHT22;12384;48.112;18.418;2023-12-04T01:01:35;-2.50;62.00
24260;DHT22;12384;48.112;18.418;2023-12-04T01:04:03;-2.50;61.70
24260;DHT22;12384;48.112;18.418;2023-12-04T01:06:33;-2.50;61.60
24260;DHT22;12384;48.112;18.418;2023-12-04T01:09:02;-2.50;61.50
24260;DHT22;12384;48.112;18.418;2023-12-04T01:11:30;-2.50;61.30
24260;DHT22;12384;48.112;18.418;2023-12-04T01:13:59;-2.50;61.10
24260;DHT22;12384;48.112;18.418;2023-12-04T01:16:27;-2.50;61.10
24260;DHT22;12384;48.112;18.418;2023-12-04T01:18:56;-2.50;61.20
24260;DHT22;12384;48.112;18.418;2023-12-04T01:21:25;-2.60;61.20
24260;DHT22;12384;48.112;18.418;2023-12-04T01:23:54;-2.60;61.20
24260;DHT22;12384;48.112;18.418;2023-12-04T01:26:23;-2.60;61.20
24260;DHT22;12384;48.112;18.418;2023-12-04T01:28:51;-2.60;61.20
24260;DHT22;12384;48.112;18.418;2023-12-04T01:31:20;-2.60;61.10
24260;DHT22;12384;48.112;18.418;2023-12-04T01:33:48;-2.60;61.10
24260;DHT22;12384;48.112;18.418;2023-12-04T01:36:17;-2.60;61.00
24260;DHT22;12384;48.112;18.418;2023-12-04T01:38:45;-2.70;61.60
24260;DHT22;12384;48.112;18.418;2023-12-04T01:41:15;-2.70;60.90
24260;DHT22;12384;48.112;18.418;2023-12-04T01:43:44;-2.70;60.90
24260;DHT22;12384;48.112;18.418;2023-12-04T01:46:13;-2.70;60.90
24260;DHT22;12384;48.112;18.418;2023-12-04T01:48:45;-2.80;61.80
24260;DHT22;12384;48.112;18.418;2023-12-04T01:51:14;-2.70;61.40
24260;DHT22;12384;48.112;18.418;2023-12-04T01:53:44;-2.70;61.60
24260;DHT22;12384;48.112;18.418;2023-12-04T01:56:15;-2.70;61.80
24260;DHT22;12384;48.112;18.418;2023-12-04T01:58:44;-2.60;62.00
24260;DHT22;12384;48.112;18.418;2023-12-04T02:01:13;-2.60;62.20
24260;DHT22;12384;48.112;18.418;2023-12-04T02:03:42;-2.50;62.40
24260;DHT22;12384;48.112;18.418;2023-12-04T02:06:12;-2.50;62.40
24260;DHT22;12384;48.112;18.418;2023-12-04T02:08:41;-2.40;62.60
24260;DHT22;12384;48.112;18.418;2023-12-04T02:11:09;-2.40;62.60
24260;DHT22;12384;48.112;18.418;2023-12-04T02:13:39;-2.30;62.80
24260;DHT22;12384;48.112;18.418;2023-12-04T02:16:10;-2.30;62.80
24260;DHT22;12384;48.112;18.418;2023-12-04T02:18:39;-2.20;62.80
24260;DHT22;12384;48.112;18.418;2023-12-04T02:21:08;-2.20;62.70
24260;DHT22;12384;48.112;18.418;2023-12-04T02:23:36;-2.20;62.70
24260;DHT22;12384;48.112;18.418;2023-12-04T02:26:16;-2.10;62.70
24260;DHT22;12384;48.112;18.418;2023-12-04T02:28:52;-2.10;62.60
24260;DHT22;12384;48.112;18.418;2023-12-04T02:31:24;-2.10;62.50
24260;DHT22;12384;48.112;18.418;2023-12-04T02:33:55;-2.10;62.40
24260;DHT22;12384;48.112;18.418;2023-12-04T02:36:26;-2.00;62.50
24260;DHT22;12384;48.112;18.418;2023-12-04T02:38:56;-2.00;62.40
24260;DHT22;12384;48.112;18.418;2023-12-04T02:41:27;-2.00;62.30
24260;DHT22;12384;48.112;18.418;2023-12-04T02:43:56;-2.00;62.30
24260;DHT22;12384;48.112;18.418;2023-12-04T02:46:24;-1.90;62.30
24260;DHT22;12384;48.112;18.418;2023-12-04T02:48:53;-1.90;62.30
24260;DHT22;12384;48.112;18.418;2023-12-04T02:51:22;-1.90;62.10
24260;DHT22;12384;48.112;18.418;2023-12-04T02:53:53;-1.90;62.10
24260;DHT22;12384;48.112;18.418;2023-12-04T02:56:22;-1.90;62.00
24260;DHT22;12384;48.112;18.418;2023-12-04T02:58:52;-1.80;62.10
24260;DHT22;12384;48.112;18.418;2023-12-04T03:01:21;-1.80;62.00
24260;DHT22;12384;48.112;18.418;2023-12-04T03:03:49;-1.80;62.00
24260;DHT22;12384;48.112;18.418;2023-12-04T03:06:18;-1.80;62.00
24260;DHT22;12384;48.112;18.418;2023-12-04T03:08:46;-1.80;62.00
24260;DHT22;12384;48.112;18.418;2023-12-04T03:11:15;-1.80;62.70
24260;DHT22;12384;48.112;18.418;2023-12-04T03:13:43;-1.80;62.00
24260;DHT22;12384;48.112;18.418;2023-12-04T03:16:16;-1.70;62.00
24260;DHT22;12384;48.112;18.418;2023-12-04T03:18:45;-1.70;61.90
24260;DHT22;12384;48.112;18.418;2023-12-04T03:21:14;-1.70;61.90
24260;DHT22;12384;48.112;18.418;2023-12-04T03:23:42;-1.70;61.90
24260;DHT22;12384;48.112;18.418;2023-12-04T03:26:11;-1.70;61.90
24260;DHT22;12384;48.112;18.418;2023-12-04T03:28:39;-1.70;61.90
24260;DHT22;12384;48.112;18.418;2023-12-04T03:31:09;-1.70;61.90
24260;DHT22;12384;48.112;18.418;2023-12-04T03:33:39;-1.70;61.80
24260;DHT22;12384;48.112;18.418;2023-12-04T03:36:08;-1.70;61.80
24260;DHT22;12384;48.112;18.418;2023-12-04T03:38:36;-1.70;61.80
24260;DHT22;12384;48.112;18.418;2023-12-04T03:41:07;-1.70;61.90
24260;DHT22;12384;48.112;18.418;2023-12-04T03:43:41;-1.70;62.00
24260;DHT22;12384;48.112;18.418;2023-12-04T03:46:09;-1.70;62.00
24260;DHT22;12384;48.112;18.418;2023-12-04T03:48:39;-1.70;62.00
24260;DHT22;12384;48.112;18.418;2023-12-04T03:51:08;-1.70;62.10
24260;DHT22;12384;48.112;18.418;2023-12-04T03:53:36;-1.70;62.10
24260;DHT22;12384;48.112;18.418;2023-12-04T03:56:05;-1.70;62.00
24260;DHT22;12384;48.112;18.418;2023-12-04T03:58:34;-1.70;62.00
24260;DHT22;12384;48.112;18.418;2023-12-04T04:01:03;-1.70;62.10
24260;DHT22;12384;48.112;18.418;2023-12-04T04:03:32;-1.70;62.10
24260;DHT22;12384;48.112;18.418;2023-12-04T04:06:02;-1.70;62.20
24260;DHT22;12384;48.112;18.418;2023-12-04T04:08:30;-1.70;62.20
24260;DHT22;12384;48.112;18.418;2023-12-04T04:10:59;-1.70;62.20
24260;DHT22;12384;48.112;18.418;2023-12-04T04:13:27;-1.70;62.20
24260;DHT22;12384;48.112;18.418;2023-12-04T04:15:56;-1.70;62.20
24260;DHT22;12384;48.112;18.418;2023-12-04T04:18:25;-1.70;62.00
24260;DHT22;12384;48.112;18.418;2023-12-04T04:20:54;-1.80;61.80
24260;DHT22;12384;48.112;18.418;2023-12-04T04:23:23;-1.80;62.40
24260;DHT22;12384;48.112;18.418;2023-12-04T04:25:52;-1.80;61.50
24260;DHT22;12384;48.112;18.418;2023-12-04T04:28:20;-1.90;61.40
24260;DHT22;12384;48.112;18.418;2023-12-04T04:30:49;-1.90;61.20
24260;DHT22;12384;48.112;18.418;2023-12-04T04:33:17;-2.00;60.90
24260;DHT22;12384;48.112;18.418;2023-12-04T04:35:45;-2.10;60.70
24260;DHT22;12384;48.112;18.418;2023-12-04T04:38:14;-2.20;60.50
24260;DHT22;12384;48.112;18.418;2023-12-04T04:40:44;-2.30;60.30
24260;DHT22;12384;48.112;18.418;2023-12-04T04:43:12;-2.30;60.40
24260;DHT22;12384;48.112;18.418;2023-12-04T04:45:41;-2.40;60.40
24260;DHT22;12384;48.112;18.418;2023-12-04T04:48:09;-2.50;60.40
24260;DHT22;12384;48.112;18.418;2023-12-04T04:50:38;-2.50;60.50
24260;DHT22;12384;48.112;18.418;2023-12-04T04:53:06;-2.50;60.60
24260;DHT22;12384;48.112;18.418;2023-12-04T04:55:35;-2.60;60.60
24260;DHT22;12384;48.112;18.418;2023-12-04T04:58:16;-2.70;60.60
24260;DHT22;12384;48.112;18.418;2023-12-04T05:00:46;-2.70;60.70
24260;DHT22;12384;48.112;18.418;2023-12-04T05:03:15;-2.80;60.60
24260;DHT22;12384;48.112;18.418;2023-12-04T05:05:43;-2.80;60.70
24260;DHT22;12384;48.112;18.418;2023-12-04T05:08:12;-2.90;60.70
24260;DHT22;12384;48.112;18.418;2023-12-04T05:10:40;-2.90;60.80
24260;DHT22;12384;48.112;18.418;2023-12-04T05:13:09;-2.90;60.80
24260;DHT22;12384;48.112;18.418;2023-12-04T05:15:39;-3.00;60.80
24260;DHT22;12384;48.112;18.418;2023-12-04T05:18:07;-3.10;60.80
24260;DHT22;12384;48.112;18.418;2023-12-04T05:20:36;-3.10;60.90
24260;DHT22;12384;48.112;18.418;2023-12-04T05:23:04;-3.20;60.80
24260;DHT22;12384;48.112;18.418;2023-12-04T05:25:33;-3.20;60.90
24260;DHT22;12384;48.112;18.418;2023-12-04T05:28:11;-3.30;61.10
24260;DHT22;12384;48.112;18.418;2023-12-04T05:30:41;-3.30;61.30
24260;DHT22;12384;48.112;18.418;2023-12-04T05:33:09;-3.40;61.20
24260;DHT22;12384;48.112;18.418;2023-12-04T05:35:38;-3.50;61.30
24260;DHT22;12384;48.112;18.418;2023-12-04T05:38:06;-3.50;61.40
24260;DHT22;12384;48.112;18.418;2023-12-04T05:40:35;-3.60;61.50
24260;DHT22;12384;48.112;18.418;2023-12-04T05:43:04;-3.60;61.70
24260;DHT22;12384;48.112;18.418;2023-12-04T05:45:32;-3.70;61.80
24260;DHT22;12384;48.112;18.418;2023-12-04T05:48:03;-3.80;61.70
24260;DHT22;12384;48.112;18.418;2023-12-04T05:50:31;-3.80;61.80
24260;DHT22;12384;48.112;18.418;2023-12-04T05:53:00;-3.90;61.80
24260;DHT22;12384;48.112;18.418;2023-12-04T05:55:28;-4.00;61.80
24260;DHT22;12384;48.112;18.418;2023-12-04T05:57:57;-4.00;61.90
24260;DHT22;12384;48.112;18.418;2023-12-04T06:00:25;-4.10;62.60
24260;DHT22;12384;48.112;18.418;2023-12-04T06:02:56;-4.10;62.20
24260;DHT22;12384;48.112;18.418;2023-12-04T06:05:25;-4.20;62.30
24260;DHT22;12384;48.112;18.418;2023-12-04T06:07:54;-4.30;62.40
24260;DHT22;12384;48.112;18.418;2023-12-04T06:10:25;-4.30;62.80
24260;DHT22;12384;48.112;18.418;2023-12-04T06:12:53;-4.40;62.90
24260;DHT22;12384;48.112;18.418;2023-12-04T06:15:22;-4.40;63.60
24260;DHT22;12384;48.112;18.418;2023-12-04T06:17:49;-4.40;64.50
24260;DHT22;12384;48.112;18.418;2023-12-04T06:20:18;-4.40;65.50
24260;DHT22;12384;48.112;18.418;2023-12-04T06:22:48;-4.50;65.70
24260;DHT22;12384;48.112;18.418;2023-12-04T06:25:17;-4.50;66.60
24260;DHT22;12384;48.112;18.418;2023-12-04T06:27:46;-4.50;67.50
24260;DHT22;12384;48.112;18.418;2023-12-04T06:30:15;-4.60;68.50
24260;DHT22;12384;48.112;18.418;2023-12-04T06:32:44;-4.60;69.60
24260;DHT22;12384;48.112;18.418;2023-12-04T06:35:14;-4.60;70.40
24260;DHT22;12384;48.112;18.418;2023-12-04T06:37:49;-4.60;71.10
24260;DHT22;12384;48.112;18.418;2023-12-04T06:40:22;-4.50;72.00
24260;DHT22;12384;48.112;18.418;2023-12-04T06:42:51;-4.50;73.40
24260;DHT22;12384;48.112;18.418;2023-12-04T06:45:20;-4.50;74.60
24260;DHT22;12384;48.112;18.418;2023-12-04T06:47:50;-4.40;76.10
24260;DHT22;12384;48.112;18.418;2023-12-04T06:50:19;-4.30;77.90
24260;DHT22;12384;48.112;18.418;2023-12-04T06:52:48;-4.20;79.80
24260;DHT22;12384;48.112;18.418;2023-12-04T06:55:18;-4.00;82.40
24260;DHT22;12384;48.112;18.418;2023-12-04T06:57:46;-3.70;87.50
24260;DHT22;12384;48.112;18.418;2023-12-04T07:00:15;-3.20;92.20
24260;DHT22;12384;48.112;18.418;2023-12-04T07:02:49;-2.60;95.60
24260;DHT22;12384;48.112;18.418;2023-12-04T07:05:19;-2.00;97.20
24260;DHT22;12384;48.112;18.418;2023-12-04T07:07:48;-1.30;97.40
24260;DHT22;12384;48.112;18.418;2023-12-04T07:10:18;-0.60;96.20
24260;DHT22;12384;48.112;18.418;2023-12-04T07:12:47;0.10;92.70
24260;DHT22;12384;48.112;18.418;2023-12-04T07:15:15;0.80;90.10
24260;DHT22;12384;48.112;18.418;2023-12-04T07:17:44;1.50;85.20
24260;DHT22;12384;48.112;18.418;2023-12-04T07:20:13;2.10;81.30
24260;DHT22;12384;48.112;18.418;2023-12-04T07:22:41;2.70;77.30
24260;DHT22;12384;48.112;18.418;2023-12-04T07:25:10;3.30;74.10
24260;DHT22;12384;48.112;18.418;2023-12-04T07:27:39;3.90;71.70
24260;DHT22;12384;48.112;18.418;2023-12-04T07:30:08;4.40;70.20
24260;DHT22;12384;48.112;18.418;2023-12-04T07:32:38;4.80;69.20
24260;DHT22;12384;48.112;18.418;2023-12-04T07:35:07;5.30;67.20
24260;DHT22;12384;48.112;18.418;2023-12-04T07:37:36;5.70;66.20
24260;DHT22;12384;48.112;18.418;2023-12-04T07:40:06;6.20;64.40
24260;DHT22;12384;48.112;18.418;2023-12-04T07:42:36;6.50;64.50
24260;DHT22;12384;48.112;18.418;2023-12-04T07:45:06;6.80;64.60
24260;DHT22;12384;48.112;18.418;2023-12-04T07:47:37;7.10;64.10
24260;DHT22;12384;48.112;18.418;2023-12-04T07:50:07;7.30;62.50
24260;DHT22;12384;48.112;18.418;2023-12-04T07:52:35;7.60;62.70
24260;DHT22;12384;48.112;18.418;2023-12-04T07:55:04;7.80;62.20
24260;DHT22;12384;48.112;18.418;2023-12-04T07:57:33;7.90;61.90
24260;DHT22;12384;48.112;18.418;2023-12-04T08:00:02;8.20;61.50
24260;DHT22;12384;48.112;18.418;2023-12-04T08:02:32;8.40;61.20
24260;DHT22;12384;48.112;18.418;2023-12-04T08:05:01;8.60;59.80
24260;DHT22;12384;48.112;18.418;2023-12-04T08:07:30;8.80;58.10
24260;DHT22;12384;48.112;18.418;2023-12-04T08:09:58;9.10;58.70
24260;DHT22;12384;48.112;18.418;2023-12-04T08:12:27;9.20;58.80
24260;DHT22;12384;48.112;18.418;2023-12-04T08:14:57;9.50;58.30
24260;DHT22;12384;48.112;18.418;2023-12-04T08:17:26;9.80;58.70
24260;DHT22;12384;48.112;18.418;2023-12-04T08:19:55;10.10;57.10
24260;DHT22;12384;48.112;18.418;2023-12-04T08:22:24;10.40;56.30
24260;DHT22;12384;48.112;18.418;2023-12-04T08:24:52;10.70;52.40
24260;DHT22;12384;48.112;18.418;2023-12-04T08:27:21;11.20;55.50
24260;DHT22;12384;48.112;18.418;2023-12-04T08:29:50;11.50;54.40
24260;DHT22;12384;48.112;18.418;2023-12-04T08:32:18;11.80;53.60
24260;DHT22;12384;48.112;18.418;2023-12-04T08:34:48;12.10;52.50
24260;DHT22;12384;48.112;18.418;2023-12-04T08:37:18;12.40;50.90
24260;DHT22;12384;48.112;18.418;2023-12-04T08:39:47;12.50;49.30
24260;DHT22;12384;48.112;18.418;2023-12-04T08:42:16;12.60;47.30
24260;DHT22;12384;48.112;18.418;2023-12-04T08:44:50;12.60;45.00
24260;DHT22;12384;48.112;18.418;2023-12-04T08:47:18;12.60;43.70
24260;DHT22;12384;48.112;18.418;2023-12-04T08:49:47;12.70;45.10
24260;DHT22;12384;48.112;18.418;2023-12-04T08:52:16;12.80;44.70
24260;DHT22;12384;48.112;18.418;2023-12-04T08:54:45;12.80;43.10
24260;DHT22;12384;48.112;18.418;2023-12-04T08:57:14;12.80;42.60
24260;DHT22;12384;48.112;18.418;2023-12-04T08:59:43;12.60;42.70
24260;DHT22;12384;48.112;18.418;2023-12-04T09:02:11;12.60;42.70
24260;DHT22;12384;48.112;18.418;2023-12-04T09:04:41;12.50;42.30
24260;DHT22;12384;48.112;18.418;2023-12-04T09:07:11;12.40;42.00
24260;DHT22;12384;48.112;18.418;2023-12-04T09:10:01;12.20;40.50
24260;DHT22;12384;48.112;18.418;2023-12-04T09:12:40;12.00;39.60
24260;DHT22;12384;48.112;18.418;2023-12-04T09:15:09;11.80;39.20
24260;DHT22;12384;48.112;18.418;2023-12-04T09:17:37;11.60;39.10
24260;DHT22;12384;48.112;18.418;2023-12-04T09:20:06;11.40;38.30
24260;DHT22;12384;48.112;18.418;2023-12-04T09:22:36;11.20;37.50
24260;DHT22;12384;48.112;18.418;2023-12-04T09:25:20;11.00;36.90
24260;DHT22;12384;48.112;18.418;2023-12-04T09:27:48;10.70;36.70
24260;DHT22;12384;48.112;18.418;2023-12-04T09:30:17;10.50;36.90
24260;DHT22;12384;48.112;18.418;2023-12-04T09:32:46;10.30;36.50
24260;DHT22;12384;48.112;18.418;2023-12-04T09:35:14;10.10;36.90
24260;DHT22;12384;48.112;18.418;2023-12-04T09:37:43;10.00;36.70
24260;DHT22;12384;48.112;18.418;2023-12-04T09:40:12;9.90;38.50
24260;DHT22;12384;48.112;18.418;2023-12-04T09:42:42;9.80;37.70
24260;DHT22;12384;48.112;18.418;2023-12-04T09:45:11;9.70;37.50
24260;DHT22;12384;48.112;18.418;2023-12-04T09:47:41;9.60;37.80
24260;DHT22;12384;48.112;18.418;2023-12-04T09:50:11;9.50;37.90
24260;DHT22;12384;48.112;18.418;2023-12-04T09:52:40;9.50;38.30
24260;DHT22;12384;48.112;18.418;2023-12-04T09:55:08;9.40;37.30
24260;DHT22;12384;48.112;18.418;2023-12-04T09:57:37;9.40;38.30
24260;DHT22;12384;48.112;18.418;2023-12-04T10:00:10;9.40;38.30
24260;DHT22;12384;48.112;18.418;2023-12-04T10:02:40;9.40;38.70
24260;DHT22;12384;48.112;18.418;2023-12-04T10:05:09;9.50;38.40
24260;DHT22;12384;48.112;18.418;2023-12-04T10:07:38;9.50;38.50
24260;DHT22;12384;48.112;18.418;2023-12-04T10:10:07;9.60;38.40
24260;DHT22;12384;48.112;18.418;2023-12-04T10:12:36;9.50;37.70
24260;DHT22;12384;48.112;18.418;2023-12-04T10:15:08;9.40;37.30
24260;DHT22;12384;48.112;18.418;2023-12-04T10:17:39;9.30;37.00
24260;DHT22;12384;48.112;18.418;2023-12-04T10:20:10;9.20;37.60
24260;DHT22;12384;48.112;18.418;2023-12-04T10:22:53;9.20;37.70
24260;DHT22;12384;48.112;18.418;2023-12-04T10:25:22;9.10;37.80
24260;DHT22;12384;48.112;18.418;2023-12-04T10:27:53;9.10;37.70
24260;DHT22;12384;48.112;18.418;2023-12-04T10:30:25;9.00;37.30
24260;DHT22;12384;48.112;18.418;2023-12-04T10:32:56;9.00;38.00
24260;DHT22;12384;48.112;18.418;2023-12-04T10:35:29;8.90;37.40
24260;DHT22;12384;48.112;18.418;2023-12-04T10:37:59;8.90;37.70
24260;DHT22;12384;48.112;18.418;2023-12-04T10:40:29;8.90;37.90
24260;DHT22;12384;48.112;18.418;2023-12-04T10:43:25;8.80;37.80
24260;DHT22;12384;48.112;18.418;2023-12-04T10:45:55;8.90;37.20
24260;DHT22;12384;48.112;18.418;2023-12-04T10:48:23;8.80;36.40
24260;DHT22;12384;48.112;18.418;2023-12-04T10:50:53;8.80;37.10
24260;DHT22;12384;48.112;18.418;2023-12-04T10:53:21;8.70;36.80
24260;DHT22;12384;48.112;18.418;2023-12-04T10:55:52;8.80;37.10
24260;DHT22;12384;48.112;18.418;2023-12-04T10:58:26;8.80;37.50
24260;DHT22;12384;48.112;18.418;2023-12-04T11:00:56;8.90;37.40
24260;DHT22;12384;48.112;18.418;2023-12-04T11:03:34;8.80;37.10
24260;DHT22;12384;48.112;18.418;2023-12-04T11:06:07;8.80;36.60
24260;DHT22;12384;48.112;18.418;2023-12-04T11:08:38;8.80;37.30
24260;DHT22;12384;48.112;18.418;2023-12-04T11:11:11;8.80;37.30
24260;DHT22;12384;48.112;18.418;2023-12-04T11:13:41;8.90;37.30
24260;DHT22;12384;48.112;18.418;2023-12-04T11:16:17;8.80;37.40
24260;DHT22;12384;48.112;18.418;2023-12-04T11:18:52;8.90;37.70
24260;DHT22;12384;48.112;18.418;2023-12-04T11:21:23;8.90;37.70
24260;DHT22;12384;48.112;18.418;2023-12-04T11:23:52;8.90;37.50
24260;DHT22;12384;48.112;18.418;2023-12-04T11:26:22;8.80;38.20
24260;DHT22;12384;48.112;18.418;2023-12-04T11:28:51;8.80;37.50
24260;DHT22;12384;48.112;18.418;2023-12-04T11:31:22;8.70;37.40
24260;DHT22;12384;48.112;18.418;2023-12-04T11:33:52;8.60;37.60
24260;DHT22;12384;48.112;18.418;2023-12-04T11:36:21;8.50;37.60
24260;DHT22;12384;48.112;18.418;2023-12-04T11:38:50;8.40;37.80
24260;DHT22;12384;48.112;18.418;2023-12-04T11:41:19;8.30;38.00
24260;DHT22;12384;48.112;18.418;2023-12-04T11:43:55;8.30;37.80
24260;DHT22;12384;48.112;18.418;2023-12-04T11:46:27;8.20;38.10
24260;DHT22;12384;48.112;18.418;2023-12-04T11:49:26;8.20;38.10
24260;DHT22;12384;48.112;18.418;2023-12-04T11:51:57;8.10;37.70
24260;DHT22;12384;48.112;18.418;2023-12-04T11:54:27;8.00;38.10
24260;DHT22;12384;48.112;18.418;2023-12-04T11:57:01;7.90;37.70
24260;DHT22;12384;48.112;18.418;2023-12-04T11:59:36;7.80;37.80
24260;DHT22;12384;48.112;18.418;2023-12-04T12:02:09;7.60;37.50
24260;DHT22;12384;48.112;18.418;2023-12-04T12:04:38;7.40;38.00
24260;DHT22;12384;48.112;18.418;2023-12-04T12:07:07;7.10;38.20
24260;DHT22;12384;48.112;18.418;2023-12-04T12:09:36;6.90;38.50
24260;DHT22;12384;48.112;18.418;2023-12-04T12:12:05;6.70;38.70
24260;DHT22;12384;48.112;18.418;2023-12-04T12:14:34;6.40;39.00
24260;DHT22;12384;48.112;18.418;2023-12-04T12:17:03;6.10;39.20
24260;DHT22;12384;48.112;18.418;2023-12-04T12:19:33;5.90;39.70
24260;DHT22;12384;48.112;18.418;2023-12-04T12:22:02;5.70;40.20
24260;DHT22;12384;48.112;18.418;2023-12-04T12:24:31;5.50;40.90
24260;DHT22;12384;48.112;18.418;2023-12-04T12:27:00;5.40;40.60
24260;DHT22;12384;48.112;18.418;2023-12-04T12:29:28;5.30;40.90
24260;DHT22;12384;48.112;18.418;2023-12-04T12:31:57;5.20;41.20
24260;DHT22;12384;48.112;18.418;2023-12-04T12:34:25;5.10;41.70
24260;DHT22;12384;48.112;18.418;2023-12-04T12:36:56;5.10;42.00
24260;DHT22;12384;48.112;18.418;2023-12-04T12:39:24;5.10;42.40
24260;DHT22;12384;48.112;18.418;2023-12-04T12:41:54;5.10;42.50
24260;DHT22;12384;48.112;18.418;2023-12-04T12:44:22;5.10;42.60
24260;DHT22;12384;48.112;18.418;2023-12-04T12:46:51;5.10;42.60
24260;DHT22;12384;48.112;18.418;2023-12-04T12:49:20;5.00;42.50
24260;DHT22;12384;48.112;18.418;2023-12-04T12:52:05;5.00;42.70
24260;DHT22;12384;48.112;18.418;2023-12-04T12:54:37;4.90;42.50
24260;DHT22;12384;48.112;18.418;2023-12-04T12:57:06;4.80;42.50
24260;DHT22;12384;48.112;18.418;2023-12-04T12:59:35;4.60;42.60
24260;DHT22;12384;48.112;18.418;2023-12-04T13:02:04;4.50;42.80
24260;DHT22;12384;48.112;18.418;2023-12-04T13:04:34;4.50;43.20
24260;DHT22;12384;48.112;18.418;2023-12-04T13:07:05;4.30;43.40
24260;DHT22;12384;48.112;18.418;2023-12-04T13:09:34;4.20;43.60
24260;DHT22;12384;48.112;18.418;2023-12-04T13:12:05;4.10;43.40
24260;DHT22;12384;48.112;18.418;2023-12-04T13:14:34;3.90;43.50
24260;DHT22;12384;48.112;18.418;2023-12-04T13:17:04;3.70;43.60
24260;DHT22;12384;48.112;18.418;2023-12-04T13:19:33;3.60;43.80
24260;DHT22;12384;48.112;18.418;2023-12-04T13:22:05;3.40;44.20
24260;DHT22;12384;48.112;18.418;2023-12-04T13:24:34;3.20;44.30
24260;DHT22;12384;48.112;18.418;2023-12-04T13:27:03;3.00;44.70
24260;DHT22;12384;48.112;18.418;2023-12-04T13:29:31;2.90;44.60
24260;DHT22;12384;48.112;18.418;2023-12-04T13:32:00;2.70;44.80
24260;DHT22;12384;48.112;18.418;2023-12-04T13:34:28;2.60;45.10
24260;DHT22;12384;48.112;18.418;2023-12-04T13:36:57;2.40;45.80
24260;DHT22;12384;48.112;18.418;2023-12-04T13:39:27;2.30;45.70
24260;DHT22;12384;48.112;18.418;2023-12-04T13:42:15;2.10;45.70
24260;DHT22;12384;48.112;18.418;2023-12-04T13:45:01;2.00;46.10
24260;DHT22;12384;48.112;18.418;2023-12-04T13:47:31;1.80;46.50
24260;DHT22;12384;48.112;18.418;2023-12-04T13:50:02;1.70;46.80
24260;DHT22;12384;48.112;18.418;2023-12-04T13:52:31;1.60;47.10
24260;DHT22;12384;48.112;18.418;2023-12-04T13:55:02;1.40;47.50
24260;DHT22;12384;48.112;18.418;2023-12-04T13:57:43;1.30;47.70
24260;DHT22;12384;48.112;18.418;2023-12-04T14:00:24;1.20;48.00
24260;DHT22;12384;48.112;18.418;2023-12-04T14:02:53;1.00;48.30
24260;DHT22;12384;48.112;18.418;2023-12-04T14:05:32;0.90;49.30
24260;DHT22;12384;48.112;18.418;2023-12-04T14:08:02;0.80;48.90
24260;DHT22;12384;48.112;18.418;2023-12-04T14:10:34;0.70;49.10
24260;DHT22;12384;48.112;18.418;2023-12-04T14:13:02;0.60;49.40
24260;DHT22;12384;48.112;18.418;2023-12-04T14:15:31;0.50;49.70
24260;DHT22;12384;48.112;18.418;2023-12-04T14:18:00;0.40;50.00
24260;DHT22;12384;48.112;18.418;2023-12-04T14:20:29;0.30;50.00
24260;DHT22;12384;48.112;18.418;2023-12-04T14:22:57;0.30;50.10
24260;DHT22;12384;48.112;18.418;2023-12-04T14:25:26;0.20;50.30
24260;DHT22;12384;48.112;18.418;2023-12-04T14:27:56;0.10;50.50
24260;DHT22;12384;48.112;18.418;2023-12-04T14:30:25;0.10;50.70
24260;DHT22;12384;48.112;18.418;2023-12-04T14:32:54;0.00;50.90
24260;DHT22;12384;48.112;18.418;2023-12-04T14:35:24;-0.10;51.10
24260;DHT22;12384;48.112;18.418;2023-12-04T14:37:52;-0.10;51.20
24260;DHT22;12384;48.112;18.418;2023-12-04T14:40:21;-0.20;51.30
24260;DHT22;12384;48.112;18.418;2023-12-04T14:42:50;-0.20;51.40
24260;DHT22;12384;48.112;18.418;2023-12-04T14:45:20;-0.30;51.60
24260;DHT22;12384;48.112;18.418;2023-12-04T14:47:49;-0.40;51.60
24260;DHT22;12384;48.112;18.418;2023-12-04T14:50:20;-0.40;51.80
24260;DHT22;12384;48.112;18.418;2023-12-04T14:52:49;-0.40;52.00
24260;DHT22;12384;48.112;18.418;2023-12-04T14:55:19;-0.50;52.10
24260;DHT22;12384;48.112;18.418;2023-12-04T14:58:01;-0.50;53.00
24260;DHT22;12384;48.112;18.418;2023-12-04T15:00:45;-0.60;52.50
24260;DHT22;12384;48.112;18.418;2023-12-04T15:03:31;-0.60;52.70
24260;DHT22;12384;48.112;18.418;2023-12-04T15:06:14;-0.60;53.10
24260;DHT22;12384;48.112;18.418;2023-12-04T15:09:05;-0.70;53.20
24260;DHT22;12384;48.112;18.418;2023-12-04T15:11:51;-0.70;53.30
24260;DHT22;12384;48.112;18.418;2023-12-04T15:14:43;-0.70;53.50
24260;DHT22;12384;48.112;18.418;2023-12-04T15:17:19;-0.70;53.80
24260;DHT22;12384;48.112;18.418;2023-12-04T15:19:57;-0.70;53.90
24260;DHT22;12384;48.112;18.418;2023-12-04T15:22:45;-0.70;54.20
24260;DHT22;12384;48.112;18.418;2023-12-04T15:25:15;-0.80;54.40
24260;DHT22;12384;48.112;18.418;2023-12-04T15:27:43;-0.70;54.50
24260;DHT22;12384;48.112;18.418;2023-12-04T15:30:12;-0.70;54.90
24260;DHT22;12384;48.112;18.418;2023-12-04T15:32:42;-0.70;55.50
24260;DHT22;12384;48.112;18.418;2023-12-04T15:35:11;-0.70;55.10
24260;DHT22;12384;48.112;18.418;2023-12-04T15:37:40;-0.70;55.20
24260;DHT22;12384;48.112;18.418;2023-12-04T15:40:09;-0.70;55.30
24260;DHT22;12384;48.112;18.418;2023-12-04T15:42:38;-0.70;55.50